Spooner, Wisconsin
Current Conditions -  °F | °C
As of 4:35 AM on Friday 24 Oct 2014 (Local Time) from KUBE Reporting Station
Haze Haze  
Wind Chill: 43°   Ceiling: 200
Heat Index: 46°   Visibility: 2.5mi
Dew Point: 46°   Wind: 7mph
Humidity: 100%   Direction: 170°S
Pressure: 29.96"   Gusts: NA
Location:  45.82°N, 91.89°W
Report Text: KUBE 240935Z AUTO 17006KT 2 1/2SM BR OVC002 08/08 A2996 RMK AO2
Loading
Personal Weather Stations






























Interactive Weather Map
Tropical Storm Tracking
New forecast layout! Learn more

10-Day Weather Forecast

Advertisements
Track Severe Weather on mobile